createdAt,value
2022-11-04T00:00:15.337Z,93980.84
2022-11-04T00:02:41.794Z,93980.28
2022-11-04T00:05:08.280Z,93986.78
2022-11-04T00:07:34.697Z,94001.88
2022-11-04T00:10:01.080Z,93988.38
2022-11-04T00:12:27.458Z,93991.06
2022-11-04T00:14:53.867Z,93987.03
2022-11-04T00:17:20.376Z,93989.44
2022-11-04T00:19:46.893Z,93988.94
2022-11-04T00:22:13.258Z,93985.41
2022-11-04T00:24:39.626Z,93993.78
2022-11-04T00:27:06.039Z,93987.31
2022-11-04T00:29:32.424Z,93980.59
2022-11-04T00:31:58.840Z,93972.75
2022-11-04T00:34:25.228Z,93973.00
2022-11-04T00:36:51.633Z,93974.38
2022-11-04T00:39:18.046Z,93968.44
2022-11-04T00:41:44.453Z,93968.97
2022-11-04T00:44:10.833Z,93964.66
2022-11-04T00:46:37.224Z,93960.59
2022-11-04T00:49:03.616Z,93956.56
2022-11-04T00:51:29.985Z,93953.59
2022-11-04T00:53:56.381Z,93959.28
2022-11-04T00:56:22.869Z,93959.28
2022-11-04T00:58:49.290Z,93956.56
2022-11-04T01:01:15.792Z,93945.78
2022-11-04T01:03:42.253Z,93940.66
2022-11-04T01:06:08.650Z,93943.63
2022-11-04T01:08:35.029Z,93949.25
2022-11-04T01:11:01.441Z,93939.84
2022-11-04T01:13:27.829Z,93946.88
2022-11-04T01:15:54.224Z,93941.72
2022-11-04T01:18:20.628Z,93950.38
2022-11-04T01:20:47.004Z,93953.88
2022-11-04T01:23:13.398Z,93938.47
2022-11-04T01:25:39.767Z,93949.56
2022-11-04T01:28:06.519Z,93945.25
2022-11-04T01:30:33.216Z,93948.75
2022-11-04T01:32:59.593Z,93950.38
2022-11-04T01:35:25.987Z,93949.00
2022-11-04T01:37:52.395Z,93946.88
2022-11-04T01:40:18.775Z,93952.25
2022-11-04T01:42:45.166Z,93945.50
2022-11-04T01:45:11.579Z,93941.72
2022-11-04T01:47:37.970Z,93943.88
2022-11-04T01:50:04.353Z,93946.88
2022-11-04T01:52:30.770Z,93941.72
2022-11-04T01:54:57.145Z,93946.56
2022-11-04T01:57:23.545Z,93944.97
2022-11-04T01:59:49.947Z,93939.84
2022-11-04T02:02:16.449Z,93925.56
2022-11-04T02:04:42.971Z,93921.25
2022-11-04T02:07:09.356Z,93912.34
2022-11-04T02:09:35.764Z,93903.44
2022-11-04T02:12:02.160Z,93906.69
2022-11-04T02:14:28.552Z,93906.13
2022-11-04T02:16:54.938Z,93902.38
2022-11-04T02:19:21.316Z,93889.97
2022-11-04T02:21:47.710Z,93889.16
2022-11-04T02:24:14.101Z,93889.97
2022-11-04T02:26:40.489Z,93878.38
2022-11-04T02:29:06.850Z,93872.47
2022-11-04T02:31:33.314Z,93870.84
2022-11-04T02:33:59.705Z,93877.84
2022-11-04T02:36:26.150Z,93868.13
2022-11-04T02:38:52.557Z,93869.47
2022-11-04T02:41:18.956Z,93859.00
2022-11-04T02:43:45.366Z,93855.47
2022-11-04T02:46:11.751Z,93857.91
2022-11-04T02:48:38.152Z,93856.81
2022-11-04T02:51:04.546Z,93854.13
2022-11-04T02:53:30.914Z,93846.59
2022-11-04T02:55:57.293Z,93849.28
2022-11-04T02:58:23.707Z,93838.50
2022-11-04T03:00:50.125Z,93842.28
2022-11-04T03:03:16.556Z,93830.16
2022-11-04T03:05:42.975Z,93827.72
2022-11-04T03:08:09.532Z,93821.25
2022-11-04T03:10:36.168Z,93818.03
2022-11-04T03:13:02.566Z,93820.16
2022-11-04T03:15:28.983Z,93815.31
2022-11-04T03:17:55.387Z,93812.88
2022-11-04T03:20:21.797Z,93805.34
2022-11-04T03:22:48.196Z,93797.25
2022-11-04T03:25:14.607Z,93806.13
2022-11-04T03:27:41.023Z,93794.78
2022-11-04T03:30:07.449Z,93789.69
2022-11-04T03:32:33.875Z,93787.53
2022-11-04T03:35:00.241Z,93788.91
2022-11-04T03:37:26.633Z,93784.03
2022-11-04T03:39:53.014Z,93770.28
2022-11-04T03:42:19.408Z,93772.72
2022-11-04T03:44:45.861Z,93771.91
2022-11-04T03:47:12.263Z,93763.03
2022-11-04T03:49:38.684Z,93768.41
2022-11-04T03:52:05.096Z,93758.19
2022-11-04T03:54:31.540Z,93752.50
2022-11-04T03:56:57.967Z,93761.69
2022-11-04T03:59:24.356Z,93752.00
2022-11-04T04:01:50.843Z,93751.19
2022-11-04T04:04:17.363Z,93758.47
2022-11-04T04:06:43.774Z,93757.38
2022-11-04T04:09:10.166Z,93754.41
2022-11-04T04:11:36.680Z,93750.09
2022-11-04T04:14:03.073Z,93763.03
2022-11-04T04:16:29.490Z,93760.88
2022-11-04T04:18:58.604Z,93767.88
2022-11-04T04:21:25.356Z,93762.50
2022-11-04T04:23:51.756Z,93765.19
2022-11-04T04:26:18.162Z,93771.66
2022-11-04T04:28:44.561Z,93765.19
2022-11-04T04:31:10.957Z,93772.47
2022-11-04T04:33:37.349Z,93771.41
2022-11-04T04:36:03.763Z,93775.97
2022-11-04T04:38:30.180Z,93780.03
2022-11-04T04:40:56.570Z,93780.56
2022-11-04T04:43:22.961Z,93781.94
2022-11-04T04:45:49.405Z,93780.81
2022-11-04T04:48:15.791Z,93782.19
2022-11-04T04:50:42.183Z,93783.00
2022-11-04T04:53:08.729Z,93780.31
2022-11-04T04:55:40.603Z,93777.88
2022-11-04T04:58:08.268Z,93770.88
2022-11-04T05:00:34.722Z,93770.34
2022-11-04T05:03:01.090Z,93774.94
2022-11-04T05:05:27.495Z,93781.38
2022-11-04T05:07:53.891Z,93777.63
2022-11-04T05:10:20.289Z,93776.00
2022-11-04T05:12:46.686Z,93772.22
2022-11-04T05:15:13.139Z,93767.34
2022-11-04T05:17:39.535Z,93760.91
2022-11-04T05:20:05.923Z,93746.38
2022-11-04T05:22:33.579Z,93744.75
2022-11-04T05:24:59.977Z,93743.69
2022-11-04T05:27:26.441Z,93736.66
2022-11-04T05:29:52.852Z,93732.88
2022-11-04T05:32:19.272Z,93735.03
2022-11-04T05:34:45.675Z,93732.09
2022-11-04T05:37:12.059Z,93733.97
2022-11-04T05:39:38.449Z,93731.53
2022-11-04T05:42:04.834Z,93718.06
2022-11-04T05:44:31.227Z,93723.19
2022-11-04T05:46:57.651Z,93709.47
2022-11-04T05:49:24.044Z,93708.91
2022-11-04T05:51:50.450Z,93713.75
2022-11-04T05:54:16.873Z,93711.06
2022-11-04T05:56:43.284Z,93704.34
2022-11-04T05:59:09.678Z,93712.41
2022-11-04T06:01:36.173Z,93703.53
2022-11-04T06:04:02.651Z,93700.28
2022-11-04T06:06:29.060Z,93695.19
2022-11-04T06:08:55.499Z,93700.03
2022-11-04T06:11:21.904Z,93694.63
2022-11-04T06:13:48.304Z,93694.09
2022-11-04T06:16:14.705Z,93694.09
2022-11-04T06:18:41.100Z,93699.75
2022-11-04T06:21:07.495Z,93696.00
2022-11-04T06:23:33.883Z,93700.28
2022-11-04T06:26:00.307Z,93698.69
2022-11-04T06:28:26.764Z,93699.75
2022-11-04T06:30:53.129Z,93700.56
2022-11-04T06:33:19.511Z,93698.41
2022-11-04T06:35:45.913Z,93697.34
2022-11-04T06:38:12.318Z,93686.00
2022-11-04T06:40:38.710Z,93688.72
2022-11-04T06:43:05.116Z,93684.69
2022-11-04T06:45:31.537Z,93694.91
2022-11-04T06:47:57.923Z,93689.50
2022-11-04T06:50:24.319Z,93686.28
2022-11-04T06:52:50.734Z,93681.16
2022-11-04T06:55:17.140Z,93682.81
2022-11-04T06:57:43.525Z,93684.13
2022-11-04T07:00:09.931Z,93691.41
2022-11-04T07:02:36.528Z,93687.38
2022-11-04T07:05:03.022Z,93686.81
2022-11-04T07:07:29.385Z,93686.00
2022-11-04T07:09:55.854Z,93684.41
2022-11-04T07:12:22.246Z,93683.63
2022-11-04T07:14:48.605Z,93678.22
2022-11-04T07:17:15.006Z,93681.72
2022-11-04T07:19:41.386Z,93677.94
2022-11-04T07:22:07.772Z,93681.16
2022-11-04T07:24:34.155Z,93681.44
2022-11-04T07:29:31.855Z,93685.75
2022-11-04T07:31:58.224Z,93684.13
2022-11-04T07:34:24.602Z,93679.84
2022-11-04T07:36:51.000Z,93678.75
2022-11-04T07:39:17.431Z,93678.22
2022-11-04T07:41:43.831Z,93678.16
2022-11-04T07:44:10.215Z,93672.00
2022-11-04T07:46:36.620Z,93672.25
2022-11-04T07:49:02.988Z,93677.06
2022-11-04T07:51:29.362Z,93678.41
2022-11-04T07:53:55.737Z,93681.41
2022-11-04T07:56:22.119Z,93679.25
2022-11-04T07:58:48.721Z,93691.09
2022-11-04T08:01:15.251Z,93684.13
2022-11-04T08:03:41.638Z,93680.59
2022-11-04T08:06:08.023Z,93673.34
2022-11-04T08:08:34.454Z,93671.13
2022-11-04T08:11:00.893Z,93671.16
2022-11-04T08:13:27.280Z,93667.38
2022-11-04T08:15:53.675Z,93662.00
2022-11-04T08:18:20.070Z,93665.25
2022-11-04T08:20:46.451Z,93654.19
2022-11-04T08:23:12.849Z,93660.91
2022-11-04T08:25:39.225Z,93653.56
2022-11-04T08:28:05.594Z,93661.19
2022-11-04T08:30:31.983Z,93661.72
2022-11-04T08:32:58.386Z,93670.34
2022-11-04T08:35:24.798Z,93661.75
2022-11-04T08:37:51.207Z,93663.66
2022-11-04T08:40:17.600Z,93662.28
2022-11-04T08:42:43.992Z,93653.53
2022-11-04T08:45:10.373Z,93649.25
2022-11-04T08:47:36.753Z,93653.78
2022-11-04T08:50:03.147Z,93652.16
2022-11-04T08:52:29.528Z,93648.13
2022-11-04T08:54:57.454Z,93650.66
2022-11-04T08:57:24.014Z,93655.81
2022-11-04T08:59:50.394Z,93648.22
2022-11-04T09:02:16.875Z,93648.53
2022-11-04T09:04:43.295Z,93645.47
2022-11-04T09:07:09.719Z,93642.25
2022-11-04T09:09:36.120Z,93641.16
2022-11-04T09:12:02.505Z,93636.59
2022-11-04T09:14:28.918Z,93636.34
2022-11-04T09:16:55.311Z,93636.03
2022-11-04T09:19:21.694Z,93633.34
2022-11-04T09:21:48.088Z,93631.78
2022-11-04T09:24:14.485Z,93641.19
2022-11-04T09:26:40.877Z,93639.84
2022-11-04T09:29:07.548Z,93639.06
2022-11-04T09:31:33.963Z,93628.78
2022-11-04T09:34:00.365Z,93620.19
2022-11-04T09:36:26.773Z,93616.94
2022-11-04T09:38:53.168Z,93624.78
2022-11-04T09:41:19.557Z,93610.53
2022-11-04T09:43:45.922Z,93611.59
2022-11-04T09:46:12.331Z,93604.88
2022-11-04T09:48:38.717Z,93596.25
2022-11-04T09:51:05.126Z,93595.41
2022-11-04T09:53:31.528Z,93609.44
2022-11-04T09:55:57.905Z,93609.16
2022-11-04T09:58:24.359Z,93609.16
2022-11-04T10:00:50.895Z,93612.13
2022-11-04T10:03:17.322Z,93600.50
2022-11-04T10:05:43.691Z,93600.81
2022-11-04T10:08:10.076Z,93599.44
2022-11-04T10:10:36.480Z,93603.50
2022-11-04T10:13:02.871Z,93599.50
2022-11-04T10:15:29.279Z,93600.75
2022-11-04T10:17:55.779Z,93609.16
2022-11-04T10:20:22.193Z,93610.22
2022-11-04T10:22:48.604Z,93620.19
2022-11-04T10:25:14.984Z,93616.41
2022-11-04T10:27:41.395Z,93616.13
2022-11-04T10:30:07.817Z,93613.72
2022-11-04T10:32:34.244Z,93615.84
2022-11-04T10:35:00.648Z,93616.13
2022-11-04T10:37:27.078Z,93612.91
2022-11-04T10:39:53.496Z,93617.75
2022-11-04T10:42:19.977Z,93612.38
2022-11-04T10:44:46.388Z,93608.91
2022-11-04T11:08:39.664Z,93602.03
2022-11-04T11:11:06.085Z,93608.50
2022-11-04T11:13:33.323Z,93616.06
2022-11-04T11:15:59.717Z,93620.78
2022-11-04T11:18:26.141Z,93617.28
2022-11-04T11:23:35.822Z,93617.63
2022-11-04T11:26:02.213Z,93616.03
2022-11-04T11:28:28.593Z,93615.25
2022-11-04T11:30:55.023Z,93612.28
2022-11-04T11:33:21.406Z,93611.00
2022-11-04T11:35:47.814Z,93600.50
2022-11-04T11:38:14.198Z,93607.25
2022-11-04T11:40:57.319Z,93611.56
2022-11-04T11:43:27.001Z,93609.16
2022-11-04T11:45:53.410Z,93606.19
2022-11-04T11:48:19.790Z,93600.25
2022-11-04T11:50:46.166Z,93601.09
2022-11-04T11:53:12.575Z,93608.88
2022-11-04T11:55:38.958Z,93602.16
2022-11-04T12:00:54.592Z,93598.66
2022-11-04T12:03:26.518Z,93601.88
2022-11-04T12:11:26.117Z,93602.97
2022-11-04T12:13:52.651Z,93606.75
2022-11-04T12:16:19.036Z,93601.63
2022-11-04T12:18:45.445Z,93613.22
2022-11-04T12:21:11.873Z,93616.72
2022-11-04T12:23:38.264Z,93615.91
2022-11-04T12:26:04.645Z,93607.81
2022-11-04T12:28:31.072Z,93615.63
2022-11-04T12:30:57.454Z,93618.31
2022-11-04T12:33:23.846Z,93625.59
2022-11-04T12:35:50.244Z,93614.03
2022-11-04T12:38:16.615Z,93621.03
2022-11-04T13:48:58.614Z,93649.09
2022-11-04T13:51:24.997Z,93654.25
2022-11-04T13:53:51.420Z,93656.94
2022-11-04T13:56:34.489Z,93657.19
2022-11-04T14:27:34.533Z,93692.84
2022-11-04T14:30:00.946Z,93701.41
2022-11-04T14:32:27.324Z,93693.44
2022-11-04T14:34:53.718Z,93701.91
2022-11-04T14:37:20.144Z,93702.72
2022-11-04T14:39:46.535Z,93702.75
2022-11-04T14:42:12.972Z,93717.91
2022-11-04T14:44:39.381Z,93718.19
2022-11-04T14:47:05.775Z,93718.47
2022-11-04T14:49:32.165Z,93725.75
2022-11-04T14:51:58.551Z,93726.56
2022-11-04T14:54:24.936Z,93731.97
2022-11-04T14:56:51.299Z,93734.66
2022-11-04T15:04:55.227Z,93750.13
2022-11-04T15:07:21.666Z,93750.44
2022-11-04T15:09:48.062Z,93759.00
2022-11-04T15:12:14.472Z,93774.53
2022-11-04T15:14:40.921Z,93767.03
2022-11-04T15:17:07.300Z,93774.06
2022-11-04T15:19:33.787Z,93783.06
2022-11-04T15:22:00.155Z,93781.66
2022-11-04T15:24:26.554Z,93782.25
2022-11-04T15:26:52.961Z,93784.25
2022-11-04T15:29:19.433Z,93792.16
2022-11-04T15:31:45.845Z,93794.81
2022-11-04T15:34:14.571Z,93793.91
2022-11-04T15:36:41.146Z,93804.44
2022-11-04T15:39:07.555Z,93804.47
2022-11-04T15:41:38.291Z,93807.06
2022-11-04T15:44:05.027Z,93813.63
2022-11-04T15:46:31.432Z,93808.75
2022-11-04T15:48:57.837Z,93812.38
2022-11-04T15:51:24.235Z,93821.19
2022-11-04T15:53:50.646Z,93825.06
2022-11-04T15:56:17.045Z,93825.34
2022-11-04T15:58:43.474Z,93826.31
2022-11-04T16:01:09.942Z,93835.56
2022-11-04T16:03:36.415Z,93836.56
2022-11-04T16:06:02.812Z,93834.56
2022-11-04T16:08:29.323Z,93827.13
2022-11-04T16:10:55.879Z,93827.13
2022-11-04T16:13:22.352Z,93831.72
2022-11-04T16:15:48.812Z,93825.00
2022-11-04T16:18:15.214Z,93835.19
2022-11-04T16:20:41.648Z,93843.69
2022-11-04T16:23:08.357Z,93848.97
2022-11-04T16:25:34.995Z,93854.06
2022-11-04T16:28:01.391Z,93860.97
2022-11-04T16:30:27.779Z,93858.31
2022-11-04T16:32:54.206Z,93858.31
2022-11-04T16:35:20.693Z,93860.97
2022-11-04T16:37:47.151Z,93867.03
2022-11-04T16:40:13.634Z,93871.66
2022-11-04T16:42:40.071Z,93879.75
2022-11-04T16:45:06.656Z,93874.66
2022-11-04T16:47:33.052Z,93876.47
2022-11-04T16:49:59.583Z,93888.34
2022-11-04T16:52:25.983Z,93896.56
2022-11-04T16:54:52.402Z,93902.50
2022-11-04T16:57:18.800Z,93902.31
2022-11-04T16:59:47.914Z,93900.47
2022-11-04T17:02:14.481Z,93906.22
2022-11-04T17:04:40.944Z,93903.44
2022-11-04T17:07:07.333Z,93908.03
2022-11-04T17:09:33.742Z,93915.94
2022-11-04T17:12:00.145Z,93921.03
2022-11-04T17:14:26.540Z,93927.13
2022-11-04T17:16:53.081Z,93925.09
2022-11-04T17:19:19.517Z,93929.53
2022-11-04T17:21:45.907Z,93928.38
2022-11-04T17:24:12.323Z,93929.84
2022-11-04T17:26:38.736Z,93945.34
2022-11-04T17:29:05.111Z,93954.88
2022-11-04T17:31:31.505Z,93964.75
2022-11-04T17:33:57.932Z,93969.00
2022-11-04T17:36:24.315Z,93974.28
2022-11-04T17:38:50.693Z,93965.56
2022-11-04T17:41:17.065Z,93975.75
2022-11-04T17:43:43.456Z,93982.66
2022-11-04T17:46:09.831Z,93990.88
2022-11-04T17:48:36.226Z,93988.53
2022-11-04T17:51:02.655Z,93981.47
2022-11-04T17:53:29.061Z,93987.94
2022-11-04T17:55:55.480Z,93985.47
2022-11-04T17:58:21.876Z,94000.44
2022-11-04T18:00:48.283Z,94003.41
2022-11-04T18:03:14.675Z,94015.22
2022-11-04T18:05:41.083Z,94011.59
2022-11-04T18:08:07.487Z,94015.22
2022-11-04T18:10:33.901Z,94011.59
2022-11-04T18:13:00.301Z,94019.50
2022-11-04T18:15:26.734Z,94027.41
2022-11-04T18:17:53.125Z,94029.38
2022-11-04T18:20:19.533Z,94030.19
2022-11-04T18:22:45.916Z,94030.84
2022-11-04T18:25:12.338Z,94032.81
2022-11-04T18:27:38.745Z,94041.72
2022-11-04T18:30:05.188Z,94052.41
2022-11-04T18:32:31.607Z,94049.78
2022-11-04T18:34:58.084Z,94052.59
2022-11-04T18:37:24.490Z,94058.69
2022-11-04T18:39:51.041Z,94066.56
2022-11-04T18:42:17.437Z,94073.28
2022-11-04T18:44:43.868Z,94077.41
2022-11-04T18:47:10.280Z,94078.38
2022-11-04T18:49:36.689Z,94076.09
2022-11-04T18:52:03.139Z,94090.88
2022-11-04T18:54:29.582Z,94085.78
2022-11-04T18:56:55.991Z,94097.13
2022-11-04T18:59:22.507Z,94094.19
2022-11-04T19:01:49.048Z,94097.13
2022-11-04T19:04:15.509Z,94103.19
2022-11-04T19:06:41.940Z,94103.19
2022-11-04T19:09:32.501Z,94106.28
2022-11-04T19:11:54.738Z,94112.75
2022-11-04T19:14:21.131Z,94118.81
2022-11-04T19:16:47.553Z,94119.47
2022-11-04T19:19:13.981Z,94125.53
2022-11-04T19:21:40.371Z,94117.47
2022-11-04T19:24:06.768Z,94124.38
2022-11-04T19:26:33.170Z,94121.75
2022-11-04T19:28:59.554Z,94117.94
2022-11-04T19:31:25.960Z,94127.66
2022-11-04T19:33:52.394Z,94133.56
2022-11-04T19:36:18.835Z,94133.56
2022-11-04T19:38:45.274Z,94136.03
2022-11-04T19:41:11.700Z,94147.72
2022-11-04T19:43:38.125Z,94146.91
2022-11-04T19:46:04.942Z,94160.06
2022-11-04T19:48:31.397Z,94160.06
2022-11-04T19:50:57.831Z,94159.59
2022-11-04T19:53:24.239Z,94159.59
2022-11-04T19:55:50.645Z,94163.06
2022-11-04T19:58:17.125Z,94168.16
2022-11-04T20:00:43.578Z,94175.38
2022-11-04T20:03:09.970Z,94185.91
2022-11-04T20:05:36.383Z,94186.44
2022-11-04T20:08:06.051Z,94186.75
2022-11-04T20:10:32.837Z,94188.56
2022-11-04T20:12:59.267Z,94202.56
2022-11-04T20:15:26.322Z,94207.00
2022-11-04T20:17:52.919Z,94212.09
2022-11-04T20:20:19.347Z,94215.56
2022-11-04T20:22:45.880Z,94213.59
2022-11-04T20:25:12.403Z,94214.88
2022-11-04T20:27:38.781Z,94221.78
2022-11-04T20:30:05.914Z,94227.22
2022-11-04T20:32:32.513Z,94230.81
2022-11-04T20:34:59.132Z,94236.91
2022-11-04T20:37:25.560Z,94242.19
2022-11-04T20:39:52.053Z,94233.63
2022-11-04T20:42:18.564Z,94250.25
2022-11-04T20:44:44.984Z,94254.69
2022-11-04T20:47:11.428Z,94258.97
2022-11-04T20:49:37.871Z,94262.25
2022-11-04T20:52:04.303Z,94261.44
2022-11-04T20:54:30.712Z,94264.22
2022-11-04T20:56:57.104Z,94261.44
2022-11-04T20:59:23.534Z,94260.28
2022-11-04T21:01:50.019Z,94270.31
2022-11-04T21:04:16.527Z,94276.56
2022-11-04T21:06:42.958Z,94278.38
2022-11-04T21:09:09.701Z,94278.22
2022-11-04T21:11:36.085Z,94275.06
2022-11-04T21:14:02.490Z,94282.31
2022-11-04T21:16:28.953Z,94287.75
2022-11-04T21:18:55.395Z,94296.31
2022-11-04T21:21:21.800Z,94293.50
2022-11-04T21:23:48.209Z,94298.75
2022-11-04T21:26:14.648Z,94302.41
2022-11-04T21:28:41.060Z,94298.13
2022-11-04T21:31:07.468Z,94300.56
2022-11-04T21:33:33.895Z,94302.41
2022-11-04T21:36:00.317Z,94306.50
2022-11-04T21:38:26.724Z,94312.75
2022-11-04T21:40:53.185Z,94307.97
2022-11-04T21:43:19.595Z,94319.03
2022-11-04T21:45:45.963Z,94322.28
2022-11-04T21:48:12.677Z,94327.06
2022-11-04T21:50:39.332Z,94332.66
2022-11-04T21:53:05.726Z,94331.34
2022-11-04T21:55:32.142Z,94330.06
2022-11-04T21:57:58.541Z,94323.78
2022-11-04T22:00:24.941Z,94327.06
2022-11-04T22:02:51.491Z,94327.75
2022-11-04T22:05:18.092Z,94330.03
2022-11-04T22:07:44.528Z,94330.03
2022-11-04T22:10:10.942Z,94331.00
2022-11-04T22:12:37.341Z,94336.94
2022-11-04T22:15:03.781Z,94335.97
2022-11-04T22:17:30.187Z,94343.19
2022-11-04T22:19:56.585Z,94334.47
2022-11-04T22:22:22.975Z,94333.28
2022-11-04T22:24:49.377Z,94339.91
2022-11-04T22:27:15.764Z,94342.72
2022-11-04T22:29:42.145Z,94337.28
2022-11-04T22:32:08.549Z,94352.09
2022-11-04T22:34:35.211Z,94346.84
2022-11-04T22:37:02.887Z,94345.66
2022-11-04T22:39:30.406Z,94346.97
2022-11-04T22:41:56.798Z,94349.28
2022-11-04T22:44:23.210Z,94350.72
2022-11-04T22:46:49.728Z,94348.91
2022-11-04T22:49:16.856Z,94357.66
2022-11-04T22:51:43.427Z,94356.66
2022-11-04T22:54:11.034Z,94362.75
2022-11-04T22:56:37.443Z,94363.59
2022-11-04T22:59:03.824Z,94367.03
2022-11-04T23:01:30.321Z,94365.22
2022-11-04T23:03:56.972Z,94372.94
2022-11-04T23:06:23.411Z,94371.13
2022-11-04T23:08:50.745Z,94369.31
2022-11-04T23:11:18.611Z,94373.75
2022-11-04T23:13:45.024Z,94373.44
2022-11-04T23:16:11.472Z,94375.88
2022-11-04T23:18:37.899Z,94387.91
2022-11-04T23:21:04.287Z,94387.91
2022-11-04T23:23:30.688Z,94393.69
2022-11-04T23:25:57.055Z,94396.31
2022-11-04T23:28:23.454Z,94404.88
2022-11-04T23:30:49.853Z,94400.44
2022-11-04T23:33:17.186Z,94388.25
2022-11-04T23:35:43.770Z,94394.88
2022-11-04T23:38:10.152Z,94395.69
2022-11-04T23:40:36.539Z,94396.84
2022-11-04T23:43:02.955Z,94396.47
2022-11-04T23:45:29.819Z,94395.16
2022-11-04T23:47:56.233Z,94390.53
2022-11-04T23:50:22.722Z,94391.69
2022-11-04T23:52:49.148Z,94397.25
2022-11-04T23:55:15.544Z,94400.88
2022-11-04T23:57:41.938Z,94393.50
